Time;durP1;ratioP1;P1;durP2;ratioP2;P2;SDS_P1;SDS_P2;PMS_P1;PMS_P2;Temp;Humidity;BMP_temperature;BMP_pressure;BME280_temperature;BME280_humidity;BME280_pressure;Samples;Min_cycle;Max_cycle;Signal;HPM_P1;HPM_P2
2022/05/01 00:00:49;;;;;;;;;;;;;;;13.60;65.39;101519.72;4418506;32;19997;-68
2022/05/01 00:03:45;;;;;;;;;;;;;;;13.61;64.36;101513.62;4419948;32;20675;-68
2022/05/01 00:06:01;;;;;;;;;;;;;;;13.64;65.25;101514.78;4421656;32;19990;-68
2022/05/01 00:08:27;;;;;;;;;;;;;;;13.51;63.52;101506.22;4421301;32;20028;-68
2022/05/01 00:10:53;;;;;;;;;;;;;;;13.45;64.46;101510.78;4420861;32;19992;-68
2022/05/01 00:13:21;;;;;;;;;;;;;;;13.57;64.13;101501.59;4419465;32;20002;-68
2022/05/01 00:15:47;;;;;;;;;;;;;;;13.49;64.23;101497.34;4419265;32;20080;-68
2022/05/01 00:18:13;;;;;;;;;;;;;;;13.44;65.50;101506.34;4420647;32;20006;-68
2022/05/01 00:20:38;;;;;;;;;;;;;;;13.66;63.77;101495.34;4418240;32;20007;-68
2022/05/01 00:23:04;;;;;;;;;;;;;;;13.64;64.60;101494.97;4418289;32;20015;-68
2022/05/01 00:25:30;;;;;;;;;;;;;;;13.66;64.54;101496.12;4420854;32;20483;-68
2022/05/01 00:27:55;;;;;;;;;;;;;;;13.74;65.10;101497.53;4420200;32;20441;-68
2022/05/01 00:30:21;;;;;;;;;;;;;;;13.76;64.17;101492.25;4418742;32;19965;-68
2022/05/01 00:38:17;;;;;;;;;;;;;;;13.92;64.92;101480.09;4420166;32;20853;-69
2022/05/01 00:40:43;;;;;;;;;;;;;;;13.97;64.85;101482.41;4422253;32;19997;-69
2022/05/01 00:43:09;;;;;;;;;;;;;;;13.92;64.31;101477.28;4421777;32;20024;-69
2022/05/01 00:45:34;;;;;;;;;;;;;;;13.87;64.73;101475.78;4422462;32;19985;-70
2022/05/01 00:48:00;;;;;;;;;;;;;;;13.91;65.18;101470.84;4421000;32;19997;-70
2022/05/01 00:50:26;;;;;;;;;;;;;;;13.93;65.36;101470.41;4421965;32;20284;-70
2022/05/01 00:52:52;;;;;;;;;;;;;;;14.03;65.72;101470.09;4419062;32;19954;-70
2022/05/01 00:55:18;;;;;;;;;;;;;;;14.11;65.67;101469.91;4421378;32;19985;-70
2022/05/01 00:57:45;;;;;;;;;;;;;;;14.19;65.20;101469.28;4419908;32;19993;-69
2022/05/01 01:00:11;;;;;;;;;;;;;;;14.09;64.32;101462.66;4420209;32;19973;-71
2022/05/01 01:02:37;;;;;;;;;;;;;;;14.16;64.19;101470.16;4419498;32;19992;-70
2022/05/01 01:05:03;;;;;;;;;;;;;;;14.05;64.93;101461.16;4419922;32;20012;-71
2022/05/01 01:07:29;;;;;;;;;;;;;;;14.02;65.04;101462.84;4420287;32;19953;-70
2022/05/01 01:09:54;;;;;;;;;;;;;;;13.98;65.21;101462.16;4419604;32;20000;-70
2022/05/01 01:15:08;;;;;;;;;;;;;;;13.94;65.58;101458.59;4420860;32;19981;-69
2022/05/01 01:17:36;;;;;;;;;;;;;;;13.92;66.97;101449.78;4421588;32;20008;-70
2022/05/01 01:20:07;;;;;;;;;;;;;;;13.86;66.35;101443.06;4419532;32;19953;-69
2022/05/01 01:22:32;;;;;;;;;;;;;;;13.95;66.35;101436.78;4418316;32;19972;-69
2022/05/01 01:24:58;;;;;;;;;;;;;;;13.84;65.80;101436.28;4420618;32;19970;-67
2022/05/01 01:27:24;;;;;;;;;;;;;;;13.87;65.95;101436.16;4421111;32;20366;-67
2022/05/01 01:32:39;;;;;;;;;;;;;;;13.73;66.81;101433.72;4420782;32;19961;-67
2022/05/01 01:35:06;;;;;;;;;;;;;;;13.69;65.95;101426.56;4418680;32;19972;-67
2022/05/01 01:37:33;;;;;;;;;;;;;;;13.61;66.10;101428.78;4421973;32;20037;-67
2022/05/01 01:39:58;;;;;;;;;;;;;;;13.46;66.10;101427.53;4419560;32;20025;-67
2022/05/01 01:42:29;;;;;;;;;;;;;;;13.47;66.59;101419.87;4420277;32;19973;-67
2022/05/01 01:44:55;;;;;;;;;;;;;;;13.38;66.71;101420.47;4419519;32;19945;-67
2022/05/01 01:47:20;;;;;;;;;;;;;;;13.47;66.11;101417.03;4418190;32;19992;-67
2022/05/01 01:49:45;;;;;;;;;;;;;;;13.55;66.61;101412.78;4421037;32;20361;-67
2022/05/01 01:52:11;;;;;;;;;;;;;;;13.45;66.49;101413.84;4418557;32;20357;-67
2022/05/01 01:54:36;;;;;;;;;;;;;;;13.49;67.25;101408.88;4421119;32;20037;-67
2022/05/01 01:57:03;;;;;;;;;;;;;;;13.58;68.32;101407.03;4420523;32;19969;-67
2022/05/01 01:59:30;;;;;;;;;;;;;;;13.68;67.35;101399.50;4418495;32;19957;-67
2022/05/01 02:01:55;;;;;;;;;;;;;;;13.59;67.24;101407.81;4418919;32;20018;-67
2022/05/01 02:04:21;;;;;;;;;;;;;;;13.53;66.97;101401.12;4419462;32;19981;-67
2022/05/01 02:06:46;;;;;;;;;;;;;;;13.49;67.69;101392.72;4418361;32;20499;-67
2022/05/01 02:09:13;;;;;;;;;;;;;;;13.53;68.92;101395.47;4419373;32;19972;-67
2022/05/01 02:11:39;;;;;;;;;;;;;;;13.64;68.79;101396.78;4418003;32;19993;-68
2022/05/01 02:14:05;;;;;;;;;;;;;;;13.73;68.57;101391.28;4419417;32;20080;-68
2022/05/01 02:16:30;;;;;;;;;;;;;;;13.86;68.32;101385.69;4421496;32;20404;-68
2022/05/01 02:18:56;;;;;;;;;;;;;;;13.85;68.77;101386.94;4420756;32;20061;-68
2022/05/01 02:21:37;;;;;;;;;;;;;;;13.89;67.58;101382.75;4420411;32;20004;-68
2022/05/01 02:24:08;;;;;;;;;;;;;;;13.95;68.50;101391.50;4416246;32;20327;-68
2022/05/01 02:26:35;;;;;;;;;;;;;;;13.95;69.29;101389.47;4418288;32;19957;-68
2022/05/01 02:29:02;;;;;;;;;;;;;;;13.91;69.03;101385.16;4417915;32;20380;-68
2022/05/01 02:31:28;;;;;;;;;;;;;;;13.97;68.61;101383.38;4418248;32;20008;-67
2022/05/01 02:33:54;;;;;;;;;;;;;;;13.97;67.58;101383.38;4420465;32;20006;-68
2022/05/01 02:36:19;;;;;;;;;;;;;;;13.98;67.18;101382.13;4419579;32;19985;-68
2022/05/01 02:38:46;;;;;;;;;;;;;;;13.91;67.47;101385.16;4420621;32;20493;-67
2022/05/01 02:41:12;;;;;;;;;;;;;;;13.88;67.70;101386.84;4418522;32;20315;-67
2022/05/01 02:43:37;;;;;;;;;;;;;;;13.86;68.10;101374.38;4417532;32;20000;-67
2022/05/01 02:46:03;;;;;;;;;;;;;;;13.82;67.12;101382.16;4416043;32;20071;-68
2022/05/01 02:48:28;;;;;;;;;;;;;;;13.78;68.46;101381.47;4422431;32;20299;-68
2022/05/01 02:50:54;;;;;;;;;;;;;;;13.72;68.96;101384.03;4424267;32;19967;-68
2022/05/01 02:53:20;;;;;;;;;;;;;;;13.75;68.76;101365.37;4421755;32;19956;-70
2022/05/01 02:55:46;;;;;;;;;;;;;;;13.73;67.76;101371.50;4420094;32;20281;-67
2022/05/01 02:58:12;;;;;;;;;;;;;;;13.82;67.46;101373.69;4408811;32;20001;-67
2022/05/01 03:00:37;;;;;;;;;;;;;;;13.65;67.26;101366.44;4421078;32;19992;-70
2022/05/01 03:03:03;;;;;;;;;;;;;;;13.53;67.98;101361.53;4422452;32;19957;-69
2022/05/01 03:05:28;;;;;;;;;;;;;;;13.17;69.49;101367.31;4423158;32;20001;-71
2022/05/01 03:07:55;;;;;;;;;;;;;;;13.20;70.53;101357.91;4422533;32;19999;-70
2022/05/01 03:10:22;;;;;;;;;;;;;;;13.28;70.79;101364.19;4423271;32;20038;-70
2022/05/01 03:12:50;;;;;;;;;;;;;;;13.36;69.85;101360.75;4421358;32;20055;-70
2022/05/01 03:15:16;;;;;;;;;;;;;;;13.34;69.87;101353.94;4421618;32;20011;-70
2022/05/01 03:23:13;;;;;;;;;;;;;;;13.69;68.88;101353.81;4422225;32;20334;-69
2022/05/01 03:25:39;;;;;;;;;;;;;;;13.75;69.26;101352.00;4420309;32;19971;-69
2022/05/01 03:28:05;;;;;;;;;;;;;;;13.67;68.65;101350.62;4420299;32;19973;-69
2022/05/01 03:30:30;;;;;;;;;;;;;;;13.74;68.71;101344.78;4421984;32;19957;-70
2022/05/01 03:32:56;;;;;;;;;;;;;;;13.78;68.85;101342.63;4422058;32;19950;-70
2022/05/01 03:35:21;;;;;;;;;;;;;;;13.85;68.35;101338.84;4421672;32;20000;-70
2022/05/01 03:37:47;;;;;;;;;;;;;;;13.92;68.26;101341.47;4422755;32;20409;-69
2022/05/01 03:40:13;;;;;;;;;;;;;;;14.00;67.98;101346.47;4414116;32;20012;-71
2022/05/01 03:42:39;;;;;;;;;;;;;;;14.05;68.57;101345.91;4421633;32;20017;-71
2022/05/01 03:45:05;;;;;;;;;;;;;;;14.16;68.48;101341.97;4420631;32;19957;-70
2022/05/01 03:47:32;;;;;;;;;;;;;;;14.17;67.63;101341.53;4423370;32;20056;-70
2022/05/01 03:49:58;;;;;;;;;;;;;;;14.24;68.07;101337.75;4423146;32;20400;-70
2022/05/01 03:52:23;;;;;;;;;;;;;;;14.30;67.52;101333.13;4420413;32;19997;-70
2022/05/01 03:54:49;;;;;;;;;;;;;;;14.27;67.25;101328.34;4421783;32;19953;-70
2022/05/01 03:57:15;;;;;;;;;;;;;;;14.17;66.61;101324.56;4422611;32;20311;-69
2022/05/01 03:59:41;;;;;;;;;;;;;;;14.23;66.81;101325.63;4420263;32;20341;-70
2022/05/01 04:02:06;;;;;;;;;;;;;;;13.99;65.54;101312.94;4419921;32;19997;-70
2022/05/01 04:04:32;;;;;;;;;;;;;;;14.01;65.67;101316.13;4421772;32;20342;-70
2022/05/01 04:06:57;;;;;;;;;;;;;;;13.99;66.13;101313.75;4421700;32;20262;-70
2022/05/01 04:09:24;;;;;;;;;;;;;;;13.98;65.55;101312.19;4422656;32;20020;-70
2022/05/01 04:11:50;;;;;;;;;;;;;;;13.97;65.70;101316.22;4421143;32;20005;-70
2022/05/01 04:14:15;;;;;;;;;;;;;;;13.91;66.67;101309.56;4422798;32;20045;-70
2022/05/01 04:16:41;;;;;;;;;;;;;;;13.91;66.01;101306.72;4420728;32;20518;-70
2022/05/01 04:19:07;;;;;;;;;;;;;;;14.02;65.53;101306.38;4420961;32;21607;-70
2022/05/01 04:21:33;;;;;;;;;;;;;;;14.15;66.16;101306.44;4421052;32;19961;-71
2022/05/01 04:23:59;;;;;;;;;;;;;;;14.15;65.20;101303.59;4419774;32;20374;-69
2022/05/01 04:26:24;;;;;;;;;;;;;;;14.12;64.89;101308.13;4420943;32;20015;-68
2022/05/01 04:29:36;;;;;;;;;;;;;;;14.06;64.49;101313.53;4422855;32;19957;-68
2022/05/01 04:31:35;;;;;;;;;;;;;;;13.77;66.16;101312.78;4420884;32;19954;-68
2022/05/01 04:34:01;;;;;;;;;;;;;;;13.85;65.94;101321.84;4419660;32;19946;-68
2022/05/01 04:36:26;;;;;;;;;;;;;;;13.75;65.48;101323.72;4418519;32;20005;-68
2022/05/01 04:38:51;;;;;;;;;;;;;;;13.60;65.84;101318.91;4420170;32;19958;-69
2022/05/01 04:41:18;;;;;;;;;;;;;;;13.74;65.38;101310.03;4420439;32;19996;-68
2022/05/01 04:43:43;;;;;;;;;;;;;;;13.70;65.25;101317.84;4419596;32;19993;-67
2022/05/01 04:46:09;;;;;;;;;;;;;;;13.84;65.39;101306.91;4409142;32;19965;-68
2022/05/01 04:48:35;;;;;;;;;;;;;;;13.88;65.24;101301.97;4420856;32;20035;-68
2022/05/01 04:51:00;;;;;;;;;;;;;;;13.87;64.79;101291.88;4419370;32;20413;-68
2022/05/01 04:53:26;;;;;;;;;;;;;;;13.65;65.59;101295.72;4418480;32;20014;-69
2022/05/01 04:55:52;;;;;;;;;;;;;;;13.60;65.64;101288.59;4421571;32;20010;-69
2022/05/01 04:58:20;;;;;;;;;;;;;;;13.41;66.38;101294.41;4420771;32;20087;-69
2022/05/01 05:00:46;;;;;;;;;;;;;;;13.45;66.58;101295.09;4422662;32;20522;-69
2022/05/01 05:03:13;;;;;;;;;;;;;;;13.37;67.17;101291.66;4418888;32;20081;-69
2022/05/01 05:05:38;;;;;;;;;;;;;;;13.45;67.32;101307.22;4419052;32;20380;-69
2022/05/01 05:10:50;;;;;;;;;;;;;;;13.48;66.74;101300.66;4419659;32;19993;-69
2022/05/01 05:13:20;;;;;;;;;;;;;;;12.97;68.60;101295.09;4419413;32;19992;-69
2022/05/01 05:15:47;;;;;;;;;;;;;;;13.16;68.43;101308.41;4420502;32;20040;-69
2022/05/01 05:18:14;;;;;;;;;;;;;;;13.20;68.36;101304.22;4420189;32;20124;-69
2022/05/01 05:20:39;;;;;;;;;;;;;;;13.32;67.68;101300.66;4421281;32;20410;-69
2022/05/01 05:23:05;;;;;;;;;;;;;;;13.24;67.29;101304.13;4418987;32;20516;-67
2022/05/01 05:25:30;;;;;;;;;;;;;;;13.23;66.80;101308.97;4422127;32;19949;-69
2022/05/01 05:27:56;;;;;;;;;;;;;;;13.42;66.12;101310.94;4420557;32;20104;-68
2022/05/01 05:30:21;;;;;;;;;;;;;;;13.49;65.39;101301.44;4418154;32;20003;-68
2022/05/01 05:32:47;;;;;;;;;;;;;;;13.61;65.17;101310.00;4418338;32;19996;-69
2022/05/01 05:35:12;;;;;;;;;;;;;;;13.58;65.97;101308.06;4419923;32;19984;-69
2022/05/01 05:37:38;;;;;;;;;;;;;;;13.77;66.19;101306.31;4419972;32;20014;-69
2022/05/01 05:40:04;;;;;;;;;;;;;;;13.70;65.87;101307.31;4421329;32;20022;-69
2022/05/01 05:42:29;;;;;;;;;;;;;;;13.70;65.59;101317.84;4417603;32;19975;-69
2022/05/01 05:44:55;;;;;;;;;;;;;;;13.82;65.64;101312.25;4418048;32;20000;-69
2022/05/01 05:47:21;;;;;;;;;;;;;;;13.99;65.70;101315.78;4418465;32;19979;-69
2022/05/01 05:49:47;;;;;;;;;;;;;;;14.25;64.02;101314.66;4421953;32;20026;-69
2022/05/01 05:52:12;;;;;;;;;;;;;;;14.29;64.21;101323.81;4418145;32;19981;-69
2022/05/01 05:54:39;;;;;;;;;;;;;;;14.17;63.49;101318.88;4420481;32;20022;-69
2022/05/01 05:57:04;;;;;;;;;;;;;;;14.25;63.55;101313.84;4419511;32;20381;-69
2022/05/01 05:59:30;;;;;;;;;;;;;;;14.27;62.94;101317.03;4422192;32;19949;-69
2022/05/01 06:01:55;;;;;;;;;;;;;;;14.25;63.54;101323.12;4418288;32;20005;-69
2022/05/01 06:04:22;;;;;;;;;;;;;;;14.41;62.62;101310.91;4418995;32;19953;-69
2022/05/01 06:06:47;;;;;;;;;;;;;;;14.32;62.70;101316.44;4419229;32;20471;-69
2022/05/01 06:09:13;;;;;;;;;;;;;;;14.25;62.94;101317.47;4419216;32;20461;-69
2022/05/01 06:11:38;;;;;;;;;;;;;;;14.38;63.63;101317.47;4419038;32;20413;-69
2022/05/01 06:14:03;;;;;;;;;;;;;;;14.48;63.63;101320.00;4408248;32;19961;-69
2022/05/01 06:16:31;;;;;;;;;;;;;;;14.50;63.46;101323.19;4417775;32;20006;-70
2022/05/01 06:18:58;;;;;;;;;;;;;;;14.54;63.13;101315.34;4420827;32;19976;-70
2022/05/01 06:21:24;;;;;;;;;;;;;;;14.61;63.35;101318.00;4417841;32;19985;-70
2022/05/01 06:23:50;;;;;;;;;;;;;;;14.42;61.51;101318.97;4420774;32;20011;-70
2022/05/01 06:26:16;;;;;;;;;;;;;;;14.60;61.72;101318.44;4424012;32;20432;-70
2022/05/01 06:28:42;;;;;;;;;;;;;;;14.58;61.79;101320.91;4423089;32;20111;-70
2022/05/01 06:31:07;;;;;;;;;;;;;;;14.41;61.64;101317.38;4421761;32;20440;-70
2022/05/01 06:33:34;;;;;;;;;;;;;;;14.43;62.55;101316.94;4422812;32;19957;-69
2022/05/01 06:36:00;;;;;;;;;;;;;;;14.48;62.87;101317.16;4419530;32;20310;-70
2022/05/01 06:38:26;;;;;;;;;;;;;;;14.61;62.32;101314.34;4423399;32;20326;-70
2022/05/01 06:40:52;;;;;;;;;;;;;;;14.60;61.41;101319.22;4421277;32;19989;-70
2022/05/01 06:43:18;;;;;;;;;;;;;;;14.69;61.94;101316.50;4423637;32;20000;-69
2022/05/01 06:45:43;;;;;;;;;;;;;;;14.82;61.82;101320.12;4424814;32;19983;-70
2022/05/01 06:48:10;;;;;;;;;;;;;;;14.76;61.92;101324.00;4421195;32;19962;-70
2022/05/01 06:50:36;;;;;;;;;;;;;;;15.00;60.96;101319.56;4420162;32;19970;-70
2022/05/01 06:53:02;;;;;;;;;;;;;;;15.24;61.98;101315.09;4419880;32;20012;-70
2022/05/01 06:55:27;;;;;;;;;;;;;;;15.26;60.14;101318.25;4423111;32;20585;-70
2022/05/01 06:57:53;;;;;;;;;;;;;;;15.21;59.48;101313.16;4420065;32;19957;-69
2022/05/01 07:00:19;;;;;;;;;;;;;;;15.13;59.56;101311.84;4422379;32;19982;-69
2022/05/01 07:02:46;;;;;;;;;;;;;;;15.15;60.00;101309.31;4421391;32;19998;-70
2022/05/01 07:05:11;;;;;;;;;;;;;;;14.83;60.87;101320.91;4423886;32;20001;-70
2022/05/01 07:07:37;;;;;;;;;;;;;;;14.98;60.65;101314.34;4424830;32;20255;-69
2022/05/01 07:10:02;;;;;;;;;;;;;;;15.00;60.54;101309.00;4422695;32;20309;-69
2022/05/01 07:12:28;;;;;;;;;;;;;;;15.00;59.73;101316.72;4423101;32;20601;-69
2022/05/01 07:14:54;;;;;;;;;;;;;;;14.98;59.65;101314.34;4420751;32;20033;-69
2022/05/01 07:17:19;;;;;;;;;;;;;;;15.07;60.22;101310.81;4420866;32;19990;-69
2022/05/01 07:19:45;;;;;;;;;;;;;;;14.83;60.71;101316.06;4423410;32;19949;-69
2022/05/01 07:22:13;;;;;;;;;;;;;;;14.87;61.04;101315.94;4420461;32;19968;-69
2022/05/01 07:24:40;;;;;;;;;;;;;;;15.14;60.50;101314.22;4423037;32;20024;-69
2022/05/01 07:27:05;;;;;;;;;;;;;;;14.94;60.30;101316.50;4420200;32;19961;-69
2022/05/01 07:29:31;;;;;;;;;;;;;;;15.00;60.29;101317.50;4421884;32;20024;-69
2022/05/01 07:31:57;;;;;;;;;;;;;;;14.94;59.32;101319.31;4420572;32;19980;-69
2022/05/01 07:34:22;;;;;;;;;;;;;;;14.84;59.77;101323.31;4420831;32;19972;-69
2022/05/01 07:36:48;;;;;;;;;;;;;;;15.09;60.81;101322.47;4419523;32;20015;-69
2022/05/01 07:39:14;;;;;;;;;;;;;;;15.13;61.93;101318.28;4421367;32;19941;-69
2022/05/01 07:41:40;;;;;;;;;;;;;;;15.28;60.42;101318.63;4421337;32;19997;-69
2022/05/01 07:44:05;;;;;;;;;;;;;;;15.36;59.49;101320.75;4424822;32;20007;-70
2022/05/01 07:46:31;;;;;;;;;;;;;;;15.39;60.14;101325.53;4419849;32;20300;-70
2022/05/01 07:48:57;;;;;;;;;;;;;;;15.26;60.00;101316.22;4422805;32;19999;-70
2022/05/01 07:51:23;;;;;;;;;;;;;;;15.29;58.63;101314.50;4421983;32;20598;-70
2022/05/01 07:53:48;;;;;;;;;;;;;;;15.26;59.17;101321.09;4422059;32;19981;-70
2022/05/01 07:56:14;;;;;;;;;;;;;;;15.34;58.64;101328.13;4421745;32;20000;-70
2022/05/01 07:58:39;;;;;;;;;;;;;;;15.41;58.36;101317.34;4419207;32;20001;-70
2022/05/01 08:01:05;;;;;;;;;;;;;;;15.54;59.14;101325.81;4419791;32;19989;-70
2022/05/01 08:06:16;;;;;;;;;;;;;;;15.59;59.33;101326.03;4421780;32;20311;-70
2022/05/01 08:08:41;;;;;;;;;;;;;;;15.23;59.57;101325.66;4422037;32;20029;-70
2022/05/01 08:11:07;;;;;;;;;;;;;;;15.24;60.22;101332.91;4419378;32;19989;-70
2022/05/01 08:13:33;;;;;;;;;;;;;;;15.43;59.43;101333.91;4420703;32;20379;-70
2022/05/01 08:15:59;;;;;;;;;;;;;;;15.50;58.70;101331.59;4418428;32;19980;-70
2022/05/01 08:21:10;;;;;;;;;;;;;;;15.56;58.61;101329.00;4421124;32;20229;-70
2022/05/01 08:23:37;;;;;;;;;;;;;;;15.78;57.91;101327.00;4420457;32;19980;-70
2022/05/01 08:26:03;;;;;;;;;;;;;;;16.23;57.97;101329.38;4422821;32;19956;-70
2022/05/01 08:28:31;;;;;;;;;;;;;;;16.28;56.12;101323.88;4420203;32;20020;-70
2022/05/01 08:30:56;;;;;;;;;;;;;;;16.03;55.68;101332.56;4420062;32;20873;-70
2022/05/01 08:33:22;;;;;;;;;;;;;;;16.16;56.40;101321.91;4407622;32;19975;-70
2022/05/01 08:35:47;;;;;;;;;;;;;;;16.20;56.78;101316.09;4421543;32;20047;-70
2022/05/01 08:38:13;;;;;;;;;;;;;;;16.33;55.96;101317.63;4417729;32;20484;-70
2022/05/01 08:40:39;;;;;;;;;;;;;;;16.35;56.27;101322.84;4424597;32;20035;-70
2022/05/01 08:43:05;;;;;;;;;;;;;;;16.62;56.29;101318.13;4418174;32;20410;-70
2022/05/01 08:45:45;;;;;;;;;;;;;;;16.56;56.68;101319.97;4406219;32;19953;-70
2022/05/01 08:48:12;;;;;;;;;;;;;;;16.66;54.93;101312.31;4417728;32;19957;-70
2022/05/01 08:50:38;;;;;;;;;;;;;;;16.86;53.57;101307.81;4420043;32;20016;-70
2022/05/01 08:53:04;;;;;;;;;;;;;;;16.82;54.59;101312.06;4420809;32;20029;-70
2022/05/01 08:55:30;;;;;;;;;;;;;;;16.88;54.37;101319.47;4420978;32;20164;-70
2022/05/01 08:57:57;;;;;;;;;;;;;;;17.12;53.93;101316.91;4418311;32;19968;-70
2022/05/01 09:00:22;;;;;;;;;;;;;;;17.65;51.52;101315.44;4417895;32;20045;-70
2022/05/01 09:02:48;;;;;;;;;;;;;;;18.09;51.03;101313.81;4419034;32;19992;-70
2022/05/01 09:05:14;;;;;;;;;;;;;;;18.04;50.54;101327.94;4420986;32;20424;-70
2022/05/01 09:07:40;;;;;;;;;;;;;;;18.28;49.58;101326.00;4418511;32;19965;-70
2022/05/01 09:10:07;;;;;;;;;;;;;;;18.34;49.99;101329.75;4421408;32;19946;-70
2022/05/01 09:13:04;;;;;;;;;;;;;;;18.26;50.34;101329.31;4417551;32;21092;-70
2022/05/01 09:15:27;;;;;;;;;;;;;;;18.50;51.60;101327.38;4419774;32;20497;-70
2022/05/01 09:18:01;;;;;;;;;;;;;;;18.37;50.46;101328.84;4418602;32;20365;-70
2022/05/01 09:20:27;;;;;;;;;;;;;;;18.22;50.39;101327.91;4421706;32;20030;-70
2022/05/01 09:22:54;;;;;;;;;;;;;;;18.12;50.78;101326.31;4418429;32;20001;-70
2022/05/01 09:25:22;;;;;;;;;;;;;;;18.19;51.02;101332.47;4422120;32;20009;-70
2022/05/01 09:27:49;;;;;;;;;;;;;;;18.08;51.94;101328.53;4419440;32;20049;-70
2022/05/01 09:30:16;;;;;;;;;;;;;;;18.16;51.25;101319.19;4419870;32;19997;-70
2022/05/01 09:32:43;;;;;;;;;;;;;;;18.18;50.72;101330.91;4420017;32;19997;-70
2022/05/01 09:35:12;;;;;;;;;;;;;;;18.05;50.85;101327.44;4420347;32;20040;-70
2022/05/01 09:37:38;;;;;;;;;;;;;;;17.99;51.65;101328.56;4419313;32;20001;-70
2022/05/01 09:40:04;;;;;;;;;;;;;;;17.73;51.56;101334.56;4420611;32;20047;-70
2022/05/01 09:42:33;;;;;;;;;;;;;;;17.60;51.99;101333.94;4420581;32;20089;-70
2022/05/01 09:47:43;;;;;;;;;;;;;;;18.26;51.32;101340.72;3966471;31;15835395;-69
2022/05/01 09:50:10;;;;;;;;;;;;;;;18.26;51.32;101340.72;4457071;32;20418;-69
2022/05/01 09:52:55;;;;;;;;;;;;;;;17.84;52.31;101334.91;4450507;32;20040;-69
2022/05/01 09:55:22;;;;;;;;;;;;;;;18.00;51.95;101333.78;4456751;32;20002;-69
2022/05/01 09:57:47;;;;;;;;;;;;;;;17.89;51.73;101328.56;4445749;32;19992;-69
2022/05/01 10:00:13;;;;;;;;;;;;;;;17.95;51.60;101337.28;4455501;32;20016;-69
2022/05/01 10:02:38;;;;;;;;;;;;;;;18.07;51.71;101335.53;4454370;32;20699;-69
2022/05/01 10:05:06;;;;;;;;;;;;;;;18.17;51.37;101334.25;4454951;32;20038;-69
2022/05/01 10:07:37;;;;;;;;;;;;;;;17.74;51.35;101327.59;4455565;32;19965;-69
2022/05/01 10:10:06;;;;;;;;;;;;;;;17.78;52.75;101331.09;4455861;32;19996;-69
2022/05/01 10:12:34;;;;;;;;;;;;;;;17.61;53.61;101331.84;4453361;32;20007;-69
2022/05/01 10:15:00;;;;;;;;;;;;;;;17.67;52.85;101329.97;4453283;32;20004;-69
2022/05/01 10:17:26;;;;;;;;;;;;;;;17.81;52.83;101338.69;4455255;32;19981;-69
2022/05/01 10:19:51;;;;;;;;;;;;;;;18.00;52.51;101333.78;4455409;32;20074;-69
2022/05/01 10:22:17;;;;;;;;;;;;;;;18.09;52.05;101332.97;4452703;32;20374;-69
2022/05/01 10:24:44;;;;;;;;;;;;;;;18.02;51.74;101331.25;4445087;32;19972;-69
2022/05/01 10:27:15;;;;;;;;;;;;;;;18.00;51.96;101327.28;4455583;32;20390;-69
2022/05/01 10:32:54;;;;;;;;;;;;;;;17.98;52.34;101321.28;4456880;32;19957;-69
2022/05/01 10:35:39;;;;;;;;;;;;;;;18.21;51.70;101326.31;4453918;32;20184;-69
2022/05/01 10:38:17;;;;;;;;;;;;;;;18.29;51.57;101324.72;4454426;32;20029;-69
2022/05/01 10:40:45;;;;;;;;;;;;;;;18.59;50.76;101327.34;4453080;32;20004;-69
2022/05/01 10:43:27;;;;;;;;;;;;;;;18.71;50.67;101329.22;4455305;32;19965;-69
2022/05/01 10:45:53;;;;;;;;;;;;;;;18.80;50.17;101328.41;4453891;32;20994;-69
2022/05/01 10:48:36;;;;;;;;;;;;;;;18.85;49.76;101322.84;4457040;32;19953;-69
2022/05/01 10:51:21;;;;;;;;;;;;;;;18.84;50.43;101326.94;4456178;32;20019;-69
2022/05/01 10:54:07;;;;;;;;;;;;;;;19.12;49.53;101322.69;4453990;32;19981;-70
2022/05/01 10:56:34;;;;;;;;;;;;;;;19.59;48.31;101325.63;4454448;32;19964;-69
2022/05/01 10:59:20;;;;;;;;;;;;;;;20.25;47.18;101320.44;4448010;32;19949;-69
2022/05/01 11:01:53;;;;;;;;;;;;;;;20.68;46.20;101322.53;4443088;32;20030;-69
2022/05/01 11:04:20;;;;;;;;;;;;;;;21.26;43.73;101319.56;4446411;32;19953;-69
2022/05/01 11:06:49;;;;;;;;;;;;;;;21.45;43.57;101323.75;4443546;32;19960;-69
2022/05/01 11:09:17;;;;;;;;;;;;;;;21.78;43.49;101311.94;4444636;32;20364;-69
2022/05/01 11:11:43;;;;;;;;;;;;;;;21.99;42.43;101322.09;4446298;32;19953;-69
2022/05/01 11:14:08;;;;;;;;;;;;;;;22.37;41.45;101318.09;4445919;32;19971;-70
2022/05/01 11:16:49;;;;;;;;;;;;;;;22.93;40.86;101323.03;4444036;32;20385;-70
2022/05/01 11:19:15;;;;;;;;;;;;;;;23.17;40.13;101317.75;4443478;32;21092;-70
2022/05/01 11:21:41;;;;;;;;;;;;;;;23.39;39.70;101321.56;4445330;32;20377;-70
2022/05/01 11:24:08;;;;;;;;;;;;;;;23.64;39.07;101313.31;4444011;32;19984;-70
2022/05/01 11:26:34;;;;;;;;;;;;;;;23.74;37.88;101315.44;4444636;32;20307;-70
2022/05/01 11:31:44;;;;;;;;;;;;;;;23.74;38.63;101312.56;3950507;32;15727502;-71
2022/05/01 11:37:08;;;;;;;;;;;;;;;23.79;38.27;101313.91;3950821;32;15723541;-71
2022/05/01 11:45:01;;;;;;;;;;;;;;;23.49;38.53;101307.75;3940333;32;15757586;-70
2022/05/01 11:47:27;;;;;;;;;;;;;;;23.49;38.53;101307.75;4424357;32;19965;-70
2022/05/01 11:49:53;;;;;;;;;;;;;;;22.83;39.88;101301.56;4427875;32;20005;-71
2022/05/01 11:52:19;;;;;;;;;;;;;;;22.31;42.75;101300.84;4425081;32;19976;-71
2022/05/01 11:54:50;;;;;;;;;;;;;;;22.22;40.88;101297.34;4427782;32;20219;-71
2022/05/01 12:03:01;;;;;;;;;;;;;;;21.62;42.44;101301.03;4423557;32;19961;-70
2022/05/01 12:05:29;;;;;;;;;;;;;;;21.37;43.00;101296.03;4421930;32;19965;-70
2022/05/01 12:07:56;;;;;;;;;;;;;;;20.99;44.18;101294.19;4425100;32;19989;-70
2022/05/01 12:10:23;;;;;;;;;;;;;;;20.65;44.62;101285.56;4422886;32;20422;-70
2022/05/01 12:12:49;;;;;;;;;;;;;;;20.30;45.61;101287.53;4423992;32;20000;-70
2022/05/01 12:15:14;;;;;;;;;;;;;;;20.04;46.61;101289.38;4424171;32;20722;-70
2022/05/01 12:17:41;;;;;;;;;;;;;;;19.83;47.08;101285.59;4424443;32;19953;-70
2022/05/01 12:20:07;;;;;;;;;;;;;;;19.87;47.03;101282.53;4426044;32;19953;-69
2022/05/01 12:22:37;;;;;;;;;;;;;;;19.73;47.45;101282.03;4426852;32;19992;-69
2022/05/01 12:27:40;;;;;;;;;;;;;;;19.57;48.18;101281.69;3969925;31;15721128;-71
2022/05/01 12:30:07;;;;;;;;;;;;;;;19.57;48.18;101281.69;4456301;32;19949;-70
2022/05/01 12:32:33;;;;;;;;;;;;;;;19.17;48.31;101273.53;4444558;32;19996;-70
2022/05/01 12:35:01;;;;;;;;;;;;;;;18.80;49.65;101279.91;4455086;32;19961;-71
2022/05/01 12:37:32;;;;;;;;;;;;;;;18.95;48.88;101275.09;4457719;32;20247;-70
2022/05/01 12:39:59;;;;;;;;;;;;;;;18.77;49.27;101278.03;4457213;32;19995;-71
2022/05/01 12:47:48;;;;;;;;;;;;;;;18.97;48.74;101266.84;3951080;32;15723518;-69
2022/05/01 12:52:58;;;;;;;;;;;;;;;19.76;46.78;101266.00;3949843;32;15725020;-69
2022/05/01 12:55:32;;;;;;;;;;;;;;;19.76;46.78;101266.00;4435193;32;20328;-70
2022/05/01 12:57:59;;;;;;;;;;;;;;;19.70;46.29;101262.25;4435672;32;20000;-69
2022/05/01 13:00:44;;;;;;;;;;;;;;;20.21;45.78;101265.56;4431170;32;20002;-70
2022/05/01 13:03:14;;;;;;;;;;;;;;;20.52;45.22;101260.13;4428409;32;20418;-70
2022/05/01 13:05:40;;;;;;;;;;;;;;;21.10;44.36;101257.16;4432958;32;20437;-70
2022/05/01 13:08:20;;;;;;;;;;;;;;;21.58;43.13;101266.12;4432178;32;19945;-70
2022/05/01 13:11:06;;;;;;;;;;;;;;;22.29;41.65;101268.22;4432059;32;20033;-70
2022/05/01 13:16:39;;;;;;;;;;;;;;;23.98;37.24;101271.91;3949324;32;15723536;-71
2022/05/01 13:21:44;;;;;;;;;;;;;;;23.49;37.96;101267.53;3950531;32;15723499;-69
2022/05/01 13:26:51;;;;;;;;;;;;;;;22.98;38.67;101262.78;3950856;32;15723419;-71
2022/05/01 13:29:16;;;;;;;;;;;;;;;22.98;38.67;101262.78;4421469;32;20000;-71
2022/05/01 13:31:43;;;;;;;;;;;;;;;22.76;39.69;101253.25;4419316;32;19993;-71
2022/05/01 13:34:10;;;;;;;;;;;;;;;22.37;39.31;101249.25;4419973;32;19993;-71
2022/05/01 13:36:37;;;;;;;;;;;;;;;21.94;40.27;101250.41;4422186;32;20018;-71
2022/05/01 13:39:05;;;;;;;;;;;;;;;21.73;41.15;101252.50;4420301;32;20029;-70
2022/05/01 13:44:48;;;;;;;;;;;;;;;22.40;40.76;101251.13;4421096;32;19969;-70